createdAt,value
2016-06-12T00:00:13.105Z,22.92
2016-06-12T00:01:12.951Z,22.83
2016-06-12T00:02:13.111Z,22.88
2016-06-12T00:03:13.114Z,22.86
2016-06-12T00:04:13.117Z,22.9
2016-06-12T00:05:13.213Z,22.85
2016-06-12T00:06:13.123Z,22.9
2016-06-12T00:07:14.205Z,22.9
2016-06-12T00:08:13.130Z,22.85
2016-06-12T00:09:13.158Z,22.83
2016-06-12T00:10:13.200Z,22.82
2016-06-12T00:11:13.241Z,22.73
2016-06-12T00:12:13.266Z,22.8
2016-06-12T00:13:13.323Z,22.83
2016-06-12T00:14:13.348Z,22.94
2016-06-12T00:15:13.364Z,22.91
2016-06-12T00:16:13.366Z,22.79
2016-06-12T00:17:13.398Z,22.77
2016-06-12T00:18:14.211Z,22.8
2016-06-12T00:19:13.426Z,22.83
2016-06-12T00:20:13.449Z,22.86
2016-06-12T00:21:13.582Z,22.85
2016-06-12T00:22:13.450Z,22.82
2016-06-12T00:23:13.442Z,22.91
2016-06-12T00:24:13.448Z,22.86
2016-06-12T00:25:13.453Z,22.98
2016-06-12T00:26:13.474Z,22.94
2016-06-12T00:27:13.463Z,22.86
2016-06-12T00:28:13.468Z,22.79
2016-06-12T00:29:13.831Z,22.82
2016-06-12T00:30:13.492Z,22.72
2016-06-12T00:31:13.495Z,22.77
2016-06-12T00:32:13.483Z,22.79
2016-06-12T00:33:13.502Z,22.88
2016-06-12T00:34:13.490Z,22.86
2016-06-12T00:35:14.102Z,22.9
2016-06-12T00:36:13.527Z,22.8
2016-06-12T00:37:13.500Z,22.79
2016-06-12T00:38:13.503Z,22.83
2016-06-12T00:39:13.506Z,22.79
2016-06-12T00:40:14.072Z,22.9
2016-06-12T00:41:13.528Z,22.85
2016-06-12T00:42:13.516Z,22.9
2016-06-12T00:43:13.518Z,22.9
2016-06-12T00:44:13.538Z,22.77
2016-06-12T00:45:13.541Z,22.79
2016-06-12T00:46:13.544Z,22.88
2016-06-12T00:47:13.547Z,22.75
2016-06-12T00:48:13.534Z,22.82
2016-06-12T00:49:13.537Z,22.75
2016-06-12T00:50:13.385Z,22.7
2016-06-12T00:51:13.793Z,22.79
2016-06-12T00:52:13.563Z,22.61
2016-06-12T00:53:13.549Z,22.67
2016-06-12T00:54:13.553Z,22.73
2016-06-12T00:55:13.572Z,22.7
2016-06-12T00:56:13.558Z,22.72
2016-06-12T00:57:13.562Z,22.73
2016-06-12T00:58:13.565Z,22.68
2016-06-12T00:59:13.568Z,22.72
2016-06-12T01:00:13.571Z,22.65
2016-06-12T01:01:13.574Z,22.72
2016-06-12T01:02:13.827Z,22.61
2016-06-12T01:03:13.580Z,22.65
2016-06-12T01:04:14.756Z,22.67
2016-06-12T01:05:13.617Z,22.68
2016-06-12T01:06:13.589Z,22.57
2016-06-12T01:07:13.592Z,22.6
2016-06-12T01:08:13.612Z,22.72
2016-06-12T01:09:13.598Z,22.85
2016-06-12T01:10:13.602Z,22.79
2016-06-12T01:11:13.621Z,22.76
2016-06-12T01:12:13.607Z,22.77
2016-06-12T01:13:13.767Z,22.7
2016-06-12T01:14:13.614Z,22.76
2016-06-12T01:15:14.679Z,22.68
2016-06-12T01:16:13.621Z,22.6
2016-06-12T01:17:13.623Z,22.55
2016-06-12T01:18:13.627Z,22.6
2016-06-12T01:19:13.629Z,22.68
2016-06-12T01:20:13.632Z,22.61
2016-06-12T01:21:13.635Z,22.51
2016-06-12T01:22:13.638Z,22.57
2016-06-12T01:23:13.689Z,22.57
2016-06-12T01:24:13.645Z,22.49
2016-06-12T01:25:13.648Z,22.54
2016-06-12T01:26:14.526Z,22.55
2016-06-12T01:27:13.498Z,22.61
2016-06-12T01:28:13.657Z,22.61
2016-06-12T01:29:13.504Z,22.72
2016-06-12T01:30:13.507Z,22.75
2016-06-12T01:31:13.667Z,22.62
2016-06-12T01:32:13.669Z,22.57
2016-06-12T01:33:13.516Z,22.7
2016-06-12T01:34:13.676Z,22.75
2016-06-12T01:35:13.616Z,22.73
2016-06-12T01:36:13.729Z,22.76
2016-06-12T01:37:14.576Z,22.77
2016-06-12T01:38:13.688Z,22.76
2016-06-12T01:39:13.691Z,22.72
2016-06-12T01:40:13.538Z,22.62
2016-06-12T01:41:13.698Z,22.57
2016-06-12T01:42:13.700Z,22.52
2016-06-12T01:43:13.703Z,22.58
2016-06-12T01:44:13.706Z,22.72
2016-06-12T01:45:13.694Z,22.76
2016-06-12T01:46:14.682Z,22.65
2016-06-12T01:47:13.715Z,22.76
2016-06-12T01:48:14.500Z,22.7
2016-06-12T01:49:13.722Z,22.72
2016-06-12T01:50:13.647Z,22.72
2016-06-12T01:51:14.056Z,22.79
2016-06-12T01:52:13.731Z,22.79
2016-06-12T01:53:13.734Z,22.79
2016-06-12T01:54:13.737Z,22.77
2016-06-12T01:55:13.741Z,22.77
2016-06-12T01:56:13.743Z,22.8
2016-06-12T01:57:14.590Z,22.77
2016-06-12T01:58:13.750Z,22.76
2016-06-12T01:59:14.861Z,22.73
2016-06-12T02:00:13.756Z,22.79
2016-06-12T02:01:13.759Z,22.64
2016-06-12T02:02:13.778Z,22.8
2016-06-12T02:03:13.765Z,22.83
2016-06-12T02:04:13.768Z,22.86
2016-06-12T02:05:13.833Z,22.82
2016-06-12T02:06:13.774Z,22.82
2016-06-12T02:07:13.777Z,22.83
2016-06-12T02:08:14.671Z,22.82
2016-06-12T02:09:13.800Z,22.85
2016-06-12T02:10:14.334Z,22.8
2016-06-12T02:11:13.790Z,22.76
2016-06-12T02:12:13.793Z,22.8
2016-06-12T02:13:13.812Z,22.79
2016-06-12T02:14:13.815Z,22.76
2016-06-12T02:15:13.802Z,22.67
2016-06-12T02:16:13.821Z,22.83
2016-06-12T02:17:13.824Z,22.82
2016-06-12T02:18:13.827Z,22.8
2016-06-12T02:19:14.548Z,22.77
2016-06-12T02:20:14.176Z,22.8
2016-06-12T02:21:16.320Z,22.79
2016-06-12T02:22:13.871Z,22.77
2016-06-12T02:23:13.842Z,22.76
2016-06-12T02:24:13.876Z,22.8
2016-06-12T02:25:13.848Z,22.8
2016-06-12T02:26:13.695Z,22.77
2016-06-12T02:27:13.855Z,22.8
2016-06-12T02:28:13.872Z,22.85
2016-06-12T02:29:13.861Z,22.72
2016-06-12T02:30:14.551Z,22.73
2016-06-12T02:31:13.867Z,22.79
2016-06-12T02:32:14.995Z,22.61
2016-06-12T02:33:13.874Z,22.7
2016-06-12T02:34:13.876Z,22.68
2016-06-12T02:35:14.488Z,22.7
2016-06-12T02:36:14.647Z,22.65
2016-06-12T02:37:13.885Z,22.68
2016-06-12T02:38:13.889Z,22.82
2016-06-12T02:39:13.892Z,22.79
2016-06-12T02:40:13.895Z,22.83
2016-06-12T02:41:14.584Z,22.75
2016-06-12T02:42:13.901Z,22.79
2016-06-12T02:43:14.997Z,22.83
2016-06-12T02:44:13.907Z,22.9
2016-06-12T02:45:13.910Z,22.88
2016-06-12T02:46:13.913Z,22.83
2016-06-12T02:47:13.916Z,22.83
2016-06-12T02:48:13.919Z,22.8
2016-06-12T02:49:13.937Z,22.82
2016-06-12T02:50:13.940Z,22.82
2016-06-12T02:51:14.084Z,22.8
2016-06-12T02:52:14.697Z,22.73
2016-06-12T02:53:13.949Z,22.77
2016-06-12T02:54:14.905Z,22.76
2016-06-12T02:55:13.956Z,22.58
2016-06-12T02:56:13.944Z,22.51
2016-06-12T02:57:13.961Z,22.58
2016-06-12T02:58:13.965Z,22.55
2016-06-12T02:59:13.968Z,22.46
2016-06-12T03:00:13.971Z,22.61
2016-06-12T03:01:13.974Z,22.58
2016-06-12T03:02:13.993Z,22.57
2016-06-12T03:03:14.480Z,22.68
2016-06-12T03:04:13.983Z,22.72
2016-06-12T03:05:14.800Z,22.77
2016-06-12T03:06:14.052Z,22.83
2016-06-12T03:07:13.992Z,22.82
2016-06-12T03:08:14.027Z,22.83
2016-06-12T03:09:13.999Z,22.83
2016-06-12T03:10:16.470Z,22.94
2016-06-12T03:11:13.865Z,22.91
2016-06-12T03:12:14.008Z,23.05
2016-06-12T03:13:14.027Z,23.01
2016-06-12T03:14:14.530Z,22.94
2016-06-12T03:15:14.033Z,22.95
2016-06-12T03:16:15.037Z,22.9
2016-06-12T03:17:13.883Z,22.86
2016-06-12T03:18:14.042Z,22.92
2016-06-12T03:19:14.045Z,22.86
2016-06-12T03:20:14.095Z,22.85
2016-06-12T03:21:14.739Z,22.83
2016-06-12T03:22:13.898Z,22.8
2016-06-12T03:23:14.041Z,22.83
2016-06-12T03:24:14.061Z,22.91
2016-06-12T03:25:15.158Z,23.02
2016-06-12T03:26:14.067Z,22.95
2016-06-12T03:27:14.820Z,22.83
2016-06-12T03:28:14.073Z,22.94
2016-06-12T03:29:14.076Z,22.92
2016-06-12T03:30:14.080Z,22.94
2016-06-12T03:31:14.082Z,22.83
2016-06-12T03:32:14.100Z,22.88
2016-06-12T03:33:14.089Z,22.9
2016-06-12T03:34:14.107Z,22.9
2016-06-12T03:35:14.110Z,22.94
2016-06-12T03:36:15.706Z,22.91
2016-06-12T03:37:14.007Z,22.91
2016-06-12T03:38:14.823Z,22.85
2016-06-12T03:39:14.122Z,22.92
2016-06-12T03:40:14.125Z,22.9
2016-06-12T03:41:14.144Z,22.91
2016-06-12T03:42:14.132Z,22.9
2016-06-12T03:43:14.134Z,22.88
2016-06-12T03:44:13.981Z,22.8
2016-06-12T03:45:14.140Z,22.86
2016-06-12T03:46:14.143Z,22.77
2016-06-12T03:47:15.101Z,22.79
2016-06-12T03:48:14.150Z,22.82
2016-06-12T03:49:14.746Z,22.88
2016-06-12T03:50:14.156Z,22.9
2016-06-12T03:51:14.175Z,22.9
2016-06-12T03:52:14.162Z,22.88
2016-06-12T03:53:14.165Z,22.86
2016-06-12T03:54:14.168Z,22.8
2016-06-12T03:55:14.172Z,22.88
2016-06-12T03:56:14.174Z,22.97
2016-06-12T03:57:14.177Z,22.95
2016-06-12T03:58:15.337Z,22.9
2016-06-12T03:59:14.199Z,22.92
2016-06-12T04:00:14.953Z,22.94
2016-06-12T04:01:14.206Z,22.94
2016-06-12T04:02:14.208Z,22.92
2016-06-12T04:03:14.211Z,22.92
2016-06-12T04:04:14.215Z,22.92
2016-06-12T04:05:14.062Z,22.88
2016-06-12T04:06:14.221Z,22.82
2016-06-12T04:07:14.224Z,22.91
2016-06-12T04:08:14.274Z,23.02
2016-06-12T04:09:15.230Z,22.97
2016-06-12T04:10:14.233Z,22.94
2016-06-12T04:11:14.939Z,22.97
2016-06-12T04:12:14.239Z,22.94
2016-06-12T04:13:14.242Z,22.95
2016-06-12T04:14:14.262Z,22.9
2016-06-12T04:15:14.092Z,22.86
2016-06-12T04:16:14.252Z,22.86
2016-06-12T04:17:14.255Z,22.9
2016-06-12T04:18:14.258Z,23.07
2016-06-12T04:19:14.104Z,22.94
2016-06-12T04:20:15.373Z,22.95
2016-06-12T04:21:14.283Z,23.01
2016-06-12T04:22:15.223Z,23.23
2016-06-12T04:23:14.273Z,23.13
2016-06-12T04:24:14.276Z,23.19
2016-06-12T04:25:14.296Z,23.13
2016-06-12T04:26:14.298Z,23.04
2016-06-12T04:27:14.144Z,23.13
2016-06-12T04:28:14.304Z,23.01
2016-06-12T04:29:14.308Z,22.98
2016-06-12T04:30:14.311Z,22.9
2016-06-12T04:31:15.454Z,22.98
2016-06-12T04:32:14.316Z,23.13
2016-06-12T04:33:15.132Z,23.16
2016-06-12T04:34:14.323Z,23.15
2016-06-12T04:35:14.326Z,23.19
2016-06-12T04:36:15.079Z,23.07
2016-06-12T04:37:14.394Z,23.02
2016-06-12T04:38:14.351Z,23.01
2016-06-12T04:39:14.338Z,23.19
2016-06-12T04:40:14.341Z,23.33
2016-06-12T04:41:14.360Z,23.28
2016-06-12T04:42:15.457Z,23.32
2016-06-12T04:43:14.226Z,23.31
2016-06-12T04:44:15.119Z,23.32
2016-06-12T04:45:14.372Z,23.35
2016-06-12T04:46:14.391Z,23.32
2016-06-12T04:47:14.394Z,23.15
2016-06-12T04:48:14.397Z,23.2
2016-06-12T04:49:14.400Z,23.25
2016-06-12T04:50:14.403Z,23.22
2016-06-12T04:51:14.812Z,23.19
2016-06-12T04:52:14.410Z,23.25
2016-06-12T04:53:15.521Z,23.28
2016-06-12T04:54:14.446Z,23.32
2016-06-12T04:55:15.138Z,23.22
2016-06-12T04:56:14.438Z,23.16
2016-06-12T04:57:14.440Z,23.15
2016-06-12T04:58:14.444Z,23.15
2016-06-12T04:59:14.447Z,23.13
2016-06-12T05:00:14.450Z,23.02
2016-06-12T05:01:14.468Z,23.01
2016-06-12T05:02:14.456Z,23.04
2016-06-12T05:03:14.474Z,23
2016-06-12T05:04:15.587Z,22.94
2016-06-12T05:05:14.480Z,22.86
2016-06-12T05:06:16.594Z,23.02
2016-06-12T05:07:14.331Z,23.25
2016-06-12T05:08:14.333Z,23.19
2016-06-12T05:09:14.492Z,23.31
2016-06-12T05:10:14.496Z,23.35
2016-06-12T05:11:14.499Z,23.4
2016-06-12T05:12:14.517Z,23.39
2016-06-12T05:13:14.521Z,23.43
2016-06-12T05:14:14.524Z,23.38
2016-06-12T05:15:14.933Z,23.33
2016-06-12T05:16:14.530Z,23.13
2016-06-12T05:17:15.330Z,23.16
2016-06-12T05:18:14.395Z,23.13
2016-06-12T05:19:14.540Z,23.13
2016-06-12T05:20:14.542Z,23.02
2016-06-12T05:21:15.060Z,23.01
2016-06-12T05:22:14.408Z,23.07
2016-06-12T05:23:14.567Z,23.19
2016-06-12T05:24:14.569Z,23.28
2016-06-12T05:25:14.573Z,23.1
2016-06-12T05:26:15.591Z,23.22
2016-06-12T05:27:14.579Z,23.19
2016-06-12T05:28:15.176Z,23.23
2016-06-12T05:29:14.585Z,23.22
2016-06-12T05:30:14.588Z,23.19
2016-06-12T05:31:14.608Z,23.2
2016-06-12T05:32:14.594Z,23.32
2016-06-12T05:33:14.598Z,23.28
2016-06-12T05:34:14.616Z,23.17
2016-06-12T05:35:14.620Z,23.15
2016-06-12T05:36:15.919Z,23.2
2016-06-12T05:37:15.423Z,23.28
2016-06-12T05:38:14.629Z,23.38
2016-06-12T05:39:15.085Z,23.46
2016-06-12T05:40:16.651Z,23.5
2016-06-12T05:41:14.654Z,23.6
2016-06-12T05:42:14.672Z,23.65
2016-06-12T05:43:14.660Z,23.6
2016-06-12T05:44:14.663Z,23.61
2016-06-12T05:45:14.666Z,23.63
2016-06-12T05:46:14.684Z,23.69
2016-06-12T05:47:14.687Z,23.61
2016-06-12T05:48:15.331Z,23.47
2016-06-12T05:49:14.693Z,23.53
2016-06-12T05:50:14.993Z,23.57
2016-06-12T05:51:14.997Z,23.58
2016-06-12T05:52:14.563Z,23.53
2016-06-12T05:53:14.722Z,23.63
2016-06-12T05:54:14.725Z,23.63
2016-06-12T05:55:14.728Z,23.66
2016-06-12T05:56:14.731Z,23.57
2016-06-12T05:57:14.750Z,23.58
2016-06-12T05:58:14.754Z,23.66
2016-06-12T05:59:15.412Z,23.61
2016-06-12T06:00:14.774Z,23.65
2016-06-12T06:01:15.013Z,23.5
2016-06-12T06:02:14.765Z,23.48
2016-06-12T06:03:14.784Z,23.48
2016-06-12T06:04:14.786Z,23.57
2016-06-12T06:05:14.790Z,23.6
2016-06-12T06:06:14.636Z,23.54
2016-06-12T06:07:14.812Z,23.58
2016-06-12T06:08:14.659Z,23.57
2016-06-12T06:09:14.818Z,23.55
2016-06-12T06:10:15.274Z,23.61
2016-06-12T06:11:14.824Z,23.55
2016-06-12T06:12:14.874Z,23.58
2016-06-12T06:13:14.830Z,23.69
2016-06-12T06:14:14.848Z,23.66
2016-06-12T06:15:14.852Z,23.57
2016-06-12T06:16:14.854Z,23.68
2016-06-12T06:17:14.873Z,23.55
2016-06-12T06:18:14.877Z,23.57
2016-06-12T06:19:14.724Z,23.57
2016-06-12T06:20:14.899Z,23.63
2016-06-12T06:21:15.432Z,23.6
2016-06-12T06:22:14.889Z,23.68
2016-06-12T06:23:15.048Z,23.57
2016-06-12T06:24:14.911Z,23.63
2016-06-12T06:25:14.914Z,23.57
2016-06-12T06:26:14.918Z,23.58
2016-06-12T06:27:14.920Z,23.68
2016-06-12T06:28:14.938Z,23.7
2016-06-12T06:29:14.942Z,23.76
2016-06-12T06:30:14.945Z,23.65
2016-06-12T06:31:14.964Z,23.65
2016-06-12T06:32:15.310Z,23.68
2016-06-12T06:33:14.954Z,23.58
2016-06-12T06:34:14.973Z,23.66
2016-06-12T06:35:14.991Z,23.55
2016-06-12T06:36:15.916Z,23.51
2016-06-12T06:37:15.482Z,23.61
2016-06-12T06:38:15.001Z,23.66
2016-06-12T06:39:15.004Z,23.65
2016-06-12T06:40:15.008Z,23.7
2016-06-12T06:41:15.011Z,23.54
2016-06-12T06:42:15.122Z,23.61
2016-06-12T06:43:15.485Z,23.51
2016-06-12T06:44:15.034Z,23.58
2016-06-12T06:45:15.038Z,23.69
2016-06-12T06:46:15.057Z,23.69
2016-06-12T06:47:15.044Z,23.6
2016-06-12T06:48:15.047Z,23.43
2016-06-12T06:49:15.065Z,23.38
2016-06-12T06:50:15.069Z,23.36
2016-06-12T06:51:15.166Z,23.43
2016-06-12T06:52:15.559Z,23.51
2016-06-12T06:53:15.093Z,23.51
2016-06-12T06:54:15.284Z,23.42
2016-06-12T06:55:15.099Z,23.54
2016-06-12T06:56:16.071Z,23.54
2016-06-12T06:57:15.122Z,23.55
2016-06-12T06:58:15.109Z,23.54
2016-06-12T06:59:15.111Z,23.54
2016-06-12T07:00:15.131Z,23.46
2016-06-12T07:01:15.134Z,23.54
2016-06-12T07:02:15.121Z,23.5
2016-06-12T07:03:15.140Z,23.38
2016-06-12T07:04:15.143Z,23.51
2016-06-12T07:05:15.146Z,23.53
2016-06-12T07:06:15.196Z,23.6
2016-06-12T07:07:17.387Z,23.68
2016-06-12T07:08:15.172Z,23.61
2016-06-12T07:09:15.175Z,23.58
2016-06-12T07:10:15.177Z,23.63
2016-06-12T07:11:15.196Z,23.57
2016-06-12T07:12:15.199Z,23.68
2016-06-12T07:13:15.202Z,23.54
2016-06-12T07:14:15.189Z,23.53
2016-06-12T07:15:15.208Z,23.42
2016-06-12T07:16:15.211Z,23.43
2016-06-12T07:17:15.230Z,23.6
2016-06-12T07:18:15.936Z,23.61
2016-06-12T07:19:15.236Z,23.6
2016-06-12T07:20:15.239Z,23.57
2016-06-12T07:21:15.773Z,23.66
2016-06-12T07:22:16.104Z,23.58
2016-06-12T07:23:15.265Z,23.63
2016-06-12T07:24:15.252Z,23.57
2016-06-12T07:25:15.270Z,23.69
2016-06-12T07:26:15.117Z,23.65
2016-06-12T07:27:16.088Z,23.55
2016-06-12T07:28:15.279Z,23.43
2016-06-12T07:29:15.892Z,23.39
2016-06-12T07:30:15.286Z,23.42
2016-06-12T07:31:15.148Z,23.36
2016-06-12T07:32:15.307Z,23.32
2016-06-12T07:33:15.310Z,23.31
2016-06-12T07:34:15.313Z,23.31
2016-06-12T07:35:15.316Z,23.28
2016-06-12T07:36:15.335Z,23.48
2016-06-12T07:37:15.322Z,23.5
2016-06-12T07:38:16.139Z,23.57
2016-06-12T07:39:15.329Z,23.6
2016-06-12T07:40:15.895Z,23.63
2016-06-12T07:41:15.195Z,23.63
2016-06-12T07:42:15.416Z,23.68
2016-06-12T07:43:15.372Z,23.65
2016-06-12T07:44:15.360Z,23.47
2016-06-12T07:45:15.378Z,23.39
2016-06-12T07:46:15.381Z,23.4
2016-06-12T07:47:15.384Z,23.47
2016-06-12T07:48:15.372Z,23.61
2016-06-12T07:49:16.297Z,23.53
2016-06-12T07:50:15.409Z,23.55
2016-06-12T07:51:15.896Z,23.54
2016-06-12T07:52:15.478Z,23.65
2016-06-12T07:53:15.263Z,23.72
2016-06-12T07:54:15.422Z,23.73
2016-06-12T07:55:15.425Z,23.84
2016-06-12T07:56:15.428Z,23.6
2016-06-12T07:57:15.431Z,23.66
2016-06-12T07:58:15.450Z,23.66
2016-06-12T07:59:15.453Z,23.58
2016-06-12T08:00:16.299Z,23.65
2016-06-12T08:01:15.459Z,23.73
2016-06-12T08:02:15.916Z,23.72
2016-06-12T08:03:15.465Z,23.85
2016-06-12T08:04:15.469Z,23.87
2016-06-12T08:05:15.471Z,23.79
2016-06-12T08:06:15.489Z,23.8
2016-06-12T08:07:15.556Z,23.55
2016-06-12T08:08:15.511Z,23.61
2016-06-12T08:09:15.499Z,23.72
2016-06-12T08:10:15.596Z,23.65
2016-06-12T08:11:16.224Z,23.6
2016-06-12T08:12:15.508Z,23.53
2016-06-12T08:13:15.871Z,23.61
2016-06-12T08:14:15.514Z,23.58
2016-06-12T08:15:15.533Z,23.72
2016-06-12T08:16:15.536Z,23.69
2016-06-12T08:17:15.555Z,23.69
2016-06-12T08:18:15.542Z,23.65
2016-06-12T08:19:15.562Z,23.8
2016-06-12T08:20:15.579Z,23.69
2016-06-12T08:21:15.568Z,23.76
2016-06-12T08:22:16.852Z,23.7
2016-06-12T08:23:15.589Z,23.8
2016-06-12T08:24:16.139Z,23.66
2016-06-12T08:25:15.580Z,23.78
2016-06-12T08:26:15.599Z,23.73
2016-06-12T08:27:15.617Z,23.7
2016-06-12T08:28:15.604Z,23.7
2016-06-12T08:29:15.624Z,23.78
2016-06-12T08:30:15.626Z,23.87
2016-06-12T08:31:15.630Z,23.9
2016-06-12T08:32:15.616Z,23.76
2016-06-12T08:33:16.244Z,23.91
2016-06-12T08:34:15.529Z,23.85
2016-06-12T08:35:15.844Z,23.78
2016-06-12T08:36:15.660Z,23.85
2016-06-12T08:37:15.663Z,23.72
2016-06-12T08:38:15.666Z,23.8
2016-06-12T08:39:15.669Z,23.9
2016-06-12T08:40:15.672Z,23.85
2016-06-12T08:41:15.691Z,23.79
2016-06-12T08:42:15.742Z,23.8
2016-06-12T08:43:15.589Z,23.87
2016-06-12T08:44:16.200Z,23.87
2016-06-12T08:45:15.704Z,23.83
2016-06-12T08:46:15.675Z,23.76
2016-06-12T08:47:15.725Z,23.76
2016-06-12T08:48:15.729Z,23.58
2016-06-12T08:49:15.732Z,23.6
2016-06-12T08:50:15.735Z,23.58
2016-06-12T08:51:15.738Z,23.66
2016-06-12T08:52:16.647Z,23.75
2016-06-12T08:53:15.759Z,23.69
2016-06-12T08:54:15.763Z,23.78
2016-06-12T08:55:16.266Z,23.73
2016-06-12T08:56:15.768Z,23.75
2016-06-12T08:57:15.819Z,23.7
2016-06-12T08:58:15.775Z,23.68
2016-06-12T08:59:15.778Z,23.69
2016-06-12T09:00:15.780Z,23.73
2016-06-12T09:01:15.800Z,23.61
2016-06-12T09:02:15.803Z,23.66
2016-06-12T09:03:15.806Z,23.7
2016-06-12T09:04:15.825Z,23.79
2016-06-12T09:05:15.812Z,23.76
2016-06-12T09:06:16.034Z,23.61
2016-06-12T09:07:16.271Z,23.6
2016-06-12T09:08:16.806Z,23.57
2016-06-12T09:09:15.683Z,23.61
2016-06-12T09:10:15.844Z,23.68
2016-06-12T09:11:15.862Z,23.79
2016-06-12T09:12:15.849Z,23.83
2016-06-12T09:13:15.852Z,23.83
2016-06-12T09:14:15.872Z,23.88
2016-06-12T09:15:15.962Z,23.79
2016-06-12T09:16:15.959Z,23.75
2016-06-12T09:17:16.206Z,23.65
2016-06-12T09:18:16.063Z,23.65
2016-06-12T09:19:17.059Z,23.7
2016-06-12T09:20:16.124Z,23.73
2016-06-12T09:21:16.125Z,23.69
2016-06-12T09:22:16.159Z,23.75
2016-06-12T09:23:16.177Z,23.79
2016-06-12T09:24:16.038Z,23.9
2016-06-12T09:25:16.202Z,23.87
2016-06-12T09:26:16.225Z,23.85
2016-06-12T09:27:16.077Z,23.78
2016-06-12T09:28:16.477Z,23.76
2016-06-12T09:29:16.250Z,23.87
2016-06-12T09:30:17.240Z,23.91
2016-06-12T09:31:16.259Z,23.85
2016-06-12T09:32:16.265Z,23.95
2016-06-12T09:33:16.285Z,23.94
2016-06-12T09:34:16.274Z,23.9
2016-06-12T09:35:16.294Z,23.94
2016-06-12T09:36:16.298Z,23.84
2016-06-12T09:37:16.974Z,23.95
2016-06-12T09:38:16.321Z,23.88
2016-06-12T09:39:16.326Z,23.88
2016-06-12T09:40:16.329Z,23.91
2016-06-12T09:41:17.144Z,23.91
2016-06-12T09:42:16.351Z,23.88
2016-06-12T09:43:16.401Z,23.97
2016-06-12T09:44:16.343Z,23.91
2016-06-12T09:45:16.361Z,23.97
2016-06-12T09:46:16.364Z,23.9
2016-06-12T09:47:16.367Z,23.91
2016-06-12T09:48:16.370Z,23.93
2016-06-12T09:49:16.373Z,23.9
2016-06-12T09:50:16.626Z,23.91
2016-06-12T09:51:16.380Z,23.91
2016-06-12T09:52:17.914Z,23.84
2016-06-12T09:53:16.463Z,23.85
2016-06-12T09:54:16.405Z,23.97
2016-06-12T09:55:16.408Z,23.78
2016-06-12T09:56:16.410Z,23.88
2016-06-12T09:57:16.429Z,23.9
2016-06-12T09:58:16.276Z,23.9
2016-06-12T09:59:16.451Z,23.88
2016-06-12T10:00:16.439Z,23.94
2016-06-12T10:01:16.504Z,23.94
2016-06-12T10:02:16.445Z,23.94
2016-06-12T10:03:17.369Z,23.94
2016-06-12T10:04:16.466Z,23.95
2016-06-12T10:05:16.469Z,23.97
2016-06-12T10:06:16.489Z,23.97
2016-06-12T10:07:16.491Z,24.06
2016-06-12T10:08:16.478Z,24.03
2016-06-12T10:09:16.482Z,23.97
2016-06-12T10:10:16.516Z,23.87
2016-06-12T10:11:16.503Z,23.94
2016-06-12T10:12:16.507Z,23.97
2016-06-12T10:13:16.510Z,23.97
2016-06-12T10:14:17.310Z,23.98
2016-06-12T10:15:16.531Z,24.05
2016-06-12T10:16:16.534Z,24.06
2016-06-12T10:17:16.381Z,24.05
2016-06-12T10:18:16.540Z,24.08
2016-06-12T10:19:16.544Z,24.09
2016-06-12T10:20:16.562Z,24.05
2016-06-12T10:21:16.565Z,24
2016-06-12T10:22:16.897Z,23.98
2016-06-12T10:23:16.572Z,24.03
2016-06-12T10:24:16.591Z,24.06
2016-06-12T10:25:17.422Z,24.08
2016-06-12T10:26:16.597Z,24.1
2016-06-12T10:27:16.600Z,24.06
2016-06-12T10:28:16.603Z,24.02
2016-06-12T10:29:16.606Z,23.95
2016-06-12T10:30:16.624Z,23.95
2016-06-12T10:31:16.613Z,23.95
2016-06-12T10:32:16.631Z,23.98
2016-06-12T10:33:16.634Z,23.84
2016-06-12T10:34:16.777Z,23.93
2016-06-12T10:35:16.640Z,23.88
2016-06-12T10:36:17.612Z,23.94
2016-06-12T10:37:17.162Z,23.79
2016-06-12T10:38:17.009Z,23.83
2016-06-12T10:39:16.668Z,23.73
2016-06-12T10:40:16.671Z,23.88
2016-06-12T10:41:16.690Z,23.78
2016-06-12T10:42:16.693Z,23.68
2016-06-12T10:43:16.680Z,23.65
2016-06-12T10:44:16.699Z,23.6
2016-06-12T10:45:16.795Z,23.61
2016-06-12T10:46:16.767Z,23.54
2016-06-12T10:47:17.676Z,23.76
2016-06-12T10:48:16.712Z,23.73
2016-06-12T10:49:16.715Z,23.79
2016-06-12T10:50:16.717Z,23.76
2016-06-12T10:51:16.721Z,23.88
2016-06-12T10:52:17.489Z,23.83
2016-06-12T10:53:16.476Z,23.75
2016-06-12T10:54:16.761Z,23.76
2016-06-12T10:55:16.748Z,23.65
2016-06-12T10:56:17.157Z,23.54
2016-06-12T10:57:16.754Z,23.61
2016-06-12T10:58:16.758Z,23.73
2016-06-12T10:59:16.776Z,23.6
2016-06-12T11:00:16.794Z,23.66
2016-06-12T11:01:16.782Z,23.66
2016-06-12T11:02:16.630Z,23.6
2016-06-12T11:03:16.789Z,23.61
2016-06-12T11:04:16.791Z,23.61
2016-06-12T11:05:16.795Z,23.58
2016-06-12T11:06:16.657Z,23.51
2016-06-12T11:07:18.331Z,23.46
2016-06-12T11:08:16.679Z,23.43
2016-06-12T11:09:16.822Z,23.39
2016-06-12T11:10:16.841Z,23.38
2016-06-12T11:11:16.828Z,23.4
2016-06-12T11:12:16.675Z,23.28
2016-06-12T11:13:16.834Z,23.35
2016-06-12T11:14:16.682Z,23.35
2016-06-12T11:15:16.857Z,23.32
2016-06-12T11:16:16.844Z,23.36
2016-06-12T11:17:16.847Z,23.36
2016-06-12T11:18:17.256Z,23.33
2016-06-12T11:19:16.869Z,23.33
2016-06-12T11:20:16.872Z,23.43
2016-06-12T11:21:16.875Z,23.38
2016-06-12T11:22:16.878Z,23.43
2016-06-12T11:23:17.475Z,23.39
2016-06-12T11:24:16.884Z,23.46
2016-06-12T11:25:16.887Z,23.36
2016-06-12T11:26:16.890Z,23.36
2016-06-12T11:27:16.893Z,23.43
2016-06-12T11:28:16.912Z,23.43
2016-06-12T11:29:17.306Z,23.39
2016-06-12T11:30:16.902Z,23.42
2016-06-12T11:31:17.014Z,23.4
2016-06-12T11:32:16.925Z,23.42
2016-06-12T11:33:16.771Z,23.47
2016-06-12T11:34:16.931Z,23.38
2016-06-12T11:35:16.934Z,23.33
2016-06-12T11:36:16.937Z,23.33
2016-06-12T11:37:16.784Z,23.38
2016-06-12T11:38:17.741Z,23.36
2016-06-12T11:39:16.947Z,23.38
2016-06-12T11:40:31.059Z,23.46
2016-06-12T11:41:16.952Z,23.36
2016-06-12T11:42:17.127Z,23.39
2016-06-12T11:43:16.973Z,23.4
2016-06-12T11:44:16.976Z,23.42
2016-06-12T11:45:16.980Z,23.36
2016-06-12T11:46:16.983Z,23.42
2016-06-12T11:47:16.986Z,23.38
2016-06-12T11:48:16.989Z,23.39
2016-06-12T11:49:17.039Z,23.48
2016-06-12T11:50:17.011Z,23.53
2016-06-12T11:51:17.545Z,23.42
2016-06-12T11:52:17.001Z,23.42
2016-06-12T11:53:17.162Z,23.55
2016-06-12T11:54:17.023Z,23.51
2016-06-12T11:55:17.043Z,23.47
2016-06-12T11:56:17.046Z,23.48
2016-06-12T11:57:17.032Z,23.51
2016-06-12T11:58:17.035Z,23.46
2016-06-12T11:59:17.039Z,23.55
2016-06-12T12:00:17.042Z,23.6
2016-06-12T12:01:17.061Z,23.58
2016-06-12T12:02:17.704Z,23.63
2016-06-12T12:03:17.067Z,23.61
2016-06-12T12:04:17.460Z,23.65
2016-06-12T12:05:17.073Z,23.66
2016-06-12T12:06:17.091Z,23.66
2016-06-12T12:07:17.079Z,23.58
2016-06-12T12:08:17.535Z,23.58
2016-06-12T12:09:17.085Z,23.54
2016-06-12T12:10:17.292Z,23.58
2016-06-12T12:11:17.106Z,23.58
2016-06-12T12:12:17.109Z,23.51
2016-06-12T12:13:17.816Z,23.43
2016-06-12T12:14:16.960Z,23.55
2016-06-12T12:15:17.479Z,23.5
2016-06-12T12:16:17.123Z,23.53
2016-06-12T12:17:17.125Z,23.54
2016-06-12T12:18:17.144Z,23.53
2016-06-12T12:19:17.007Z,23.58
2016-06-12T12:20:17.151Z,23.6
2016-06-12T12:21:17.154Z,23.57
2016-06-12T12:22:17.157Z,23.39
2016-06-12T12:23:17.972Z,23.36
2016-06-12T12:24:17.818Z,23.43
2016-06-12T12:25:17.166Z,23.39
2016-06-12T12:26:17.419Z,23.35
2016-06-12T12:27:17.186Z,23.16
2016-06-12T12:28:17.190Z,23.25
2016-06-12T12:29:17.193Z,23.19
2016-06-12T12:30:17.196Z,23.35
2016-06-12T12:31:17.200Z,23.43
2016-06-12T12:32:17.218Z,23.43
2016-06-12T12:33:17.206Z,23.4
2016-06-12T12:34:17.209Z,23.42
2016-06-12T12:35:17.805Z,23.55
2016-06-12T12:36:17.074Z,23.54
2016-06-12T12:37:17.421Z,23.61
2016-06-12T12:38:17.236Z,23.61
2016-06-12T12:39:17.256Z,23.5
2016-06-12T12:40:17.243Z,23.53
2016-06-12T12:41:17.245Z,23.5
2016-06-12T12:42:17.249Z,23.51
2016-06-12T12:43:17.252Z,23.55
2016-06-12T12:44:17.319Z,23.5
2016-06-12T12:45:17.258Z,23.47
2016-06-12T12:46:17.777Z,23.55
2016-06-12T12:47:17.280Z,23.55
2016-06-12T12:48:17.376Z,23.51
2016-06-12T12:49:17.287Z,23.51
2016-06-12T12:50:17.337Z,23.58
2016-06-12T12:51:17.308Z,23.55
2016-06-12T12:52:17.311Z,23.55
2016-06-12T12:53:17.642Z,23.58
2016-06-12T12:54:17.317Z,23.55
2016-06-12T12:55:17.320Z,23.55
2016-06-12T12:56:17.323Z,23.6